Time;durP1;ratioP1;P1;durP2;ratioP2;P2;SDS_P1;SDS_P2;PMS_P1;PMS_P2;Temp;Humidity;BMP_temperature;BMP_pressure;BME280_temperature;BME280_humidity;BME280_pressure;Samples;Min_cycle;Max_cycle;Signal;HPM_P1;HPM_P2
2022/11/06 00:02:02;;;;;;;25.95;22.55;;;;;;;12.80;56.19;94479.19;5070722;28;20552;-66
2022/11/06 00:04:30;;;;;;;28.60;22.15;;;;;;;12.88;55.48;94478.31;5064551;28;20220;-64
2022/11/06 00:06:55;;;;;;;28.60;23.17;;;;;;;12.83;55.67;94478.03;5042153;28;20192;-64
2022/11/06 00:09:21;;;;;;;26.08;23.05;;;;;;;12.80;55.92;94481.84;5067198;28;20272;-65
2022/11/06 00:11:48;;;;;;;25.73;22.65;;;;;;;12.79;56.02;94488.94;5050377;28;20741;-64
2022/11/06 00:14:15;;;;;;;29.75;22.83;;;;;;;12.70;55.99;94490.03;5066415;28;20260;-63
2022/11/06 00:16:42;;;;;;;32.05;23.05;;;;;;;12.66;55.99;94474.72;5061791;28;20212;-64
2022/11/06 00:19:08;;;;;;;28.50;22.85;;;;;;;12.62;55.99;94478.72;5047318;28;22136;-67
2022/11/06 00:21:34;;;;;;;28.50;22.92;;;;;;;12.52;56.58;94477.13;5068175;28;20208;-62
2022/11/06 00:24:02;;;;;;;26.08;23.20;;;;;;;12.46;56.72;94469.13;5049149;28;20199;-63
2022/11/06 00:26:29;;;;;;;29.52;22.50;;;;;;;12.54;56.61;94483.06;5049171;28;20636;-65
2022/11/06 00:28:55;;;;;;;26.13;22.15;;;;;;;12.46;57.00;94480.47;5047902;28;20181;-64
2022/11/06 00:31:23;;;;;;;25.83;22.73;;;;;;;12.46;56.92;94487.56;5062906;28;20242;-64
2022/11/06 00:33:50;;;;;;;27.20;22.05;;;;;;;12.54;56.86;94472.50;5048351;28;20185;-63
2022/11/06 00:36:18;;;;;;;29.48;23.95;;;;;;;12.52;56.97;94477.13;5047959;28;20271;-63
2022/11/06 00:38:44;;;;;;;25.80;22.98;;;;;;;12.57;57.05;94471.34;5049933;28;20185;-63
2022/11/06 00:41:15;;;;;;;25.73;22.90;;;;;;;12.44;57.19;94479.00;5067097;28;20284;-64
2022/11/06 00:43:41;;;;;;;29.45;22.27;;;;;;;12.46;57.13;94471.75;5050384;28;20223;-65
2022/11/06 00:46:09;;;;;;;27.45;23.27;;;;;;;12.43;57.57;94469.44;5050882;28;20242;-66
2022/11/06 00:48:36;;;;;;;30.52;24.25;;;;;;;12.45;57.45;94470.09;5049957;28;20196;-64
2022/11/06 00:51:02;;;;;;;28.58;23.48;;;;;;;12.41;57.24;94471.47;5050246;28;20188;-65
2022/11/06 00:53:27;;;;;;;29.58;23.35;;;;;;;12.38;57.26;94463.91;5049712;28;20200;-64
2022/11/06 00:55:53;;;;;;;29.35;22.73;;;;;;;12.38;57.16;94464.72;5048120;28;20205;-63
2022/11/06 00:58:18;;;;;;;28.02;22.27;;;;;;;12.38;57.18;94458.63;5048054;28;20265;-63
2022/11/06 01:00:44;;;;;;;27.33;23.30;;;;;;;12.31;57.34;94458.50;5047929;28;20772;-63
2022/11/06 01:03:09;;;;;;;28.67;23.45;;;;;;;12.28;57.61;94459.69;5049433;28;20207;-63
2022/11/06 01:05:34;;;;;;;25.92;22.45;;;;;;;12.28;57.50;94464.13;5066200;28;20211;-63
2022/11/06 01:08:00;;;;;;;28.75;23.05;;;;;;;12.16;58.11;94461.06;5048903;28;20704;-63
2022/11/06 01:10:25;;;;;;;24.98;22.05;;;;;;;12.20;57.84;94459.72;5066848;28;20197;-63
2022/11/06 01:12:51;;;;;;;27.75;23.02;;;;;;;12.23;57.51;94456.75;5036803;28;20223;-63
2022/11/06 01:15:16;;;;;;;26.10;21.83;;;;;;;12.18;58.13;94453.81;5028594;28;20567;-63
2022/11/06 01:17:41;;;;;;;24.48;20.20;;;;;;;12.20;57.80;94437.84;5027794;28;20657;-63
2022/11/06 01:20:07;;;;;;;22.00;18.02;;;;;;;12.26;58.05;94440.56;5035710;28;20216;-66
2022/11/06 01:22:33;;;;;;;22.83;17.10;;;;;;;12.36;57.40;94435.88;5032625;28;20197;-64
2022/11/06 01:24:58;;;;;;;20.33;15.88;;;;;;;12.35;57.63;94430.81;5016455;28;20197;-63
2022/11/06 01:27:24;;;;;;;20.17;16.42;;;;;;;12.35;57.93;94430.81;5032744;28;20200;-64
2022/11/06 01:29:49;;;;;;;20.80;17.23;;;;;;;12.37;57.95;94431.44;5034877;28;20193;-62
2022/11/06 01:32:14;;;;;;;17.70;15.27;;;;;;;12.42;57.82;94433.53;5035893;28;20193;-62
2022/11/06 01:34:40;;;;;;;19.23;15.23;;;;;;;12.49;57.76;94426.56;5034678;28;20200;-63
2022/11/06 01:37:05;;;;;;;18.05;14.98;;;;;;;12.53;57.75;94433.13;5033960;28;20189;-64
2022/11/06 01:39:31;;;;;;;18.83;14.45;;;;;;;12.55;57.50;94436.41;5027936;28;20531;-63
2022/11/06 01:41:57;;;;;;;17.38;14.63;;;;;;;12.58;57.73;94443.94;5034000;28;20210;-64
2022/11/06 01:44:34;;;;;;;17.73;13.43;;;;;;;12.58;57.80;94438.69;5035352;28;20196;-64
2022/11/06 01:47:15;;;;;;;19.10;14.00;;;;;;;12.63;57.60;94438.97;5035273;28;20292;-64
2022/11/06 01:49:41;;;;;;;17.35;12.05;;;;;;;12.64;57.69;94437.94;5034357;28;20193;-63
2022/11/06 01:52:08;;;;;;;14.15;11.45;;;;;;;12.56;57.88;94433.59;5034995;28;20201;-63
2022/11/06 01:54:37;;;;;;;12.27;10.93;;;;;;;12.67;57.57;94440.25;5030575;28;20194;-63
2022/11/06 01:57:04;;;;;;;17.75;11.25;;;;;;;12.71;57.29;94438.88;5034271;28;20276;-64
2022/11/06 01:59:44;;;;;;;13.43;10.48;;;;;;;12.71;57.26;94432.81;5034923;28;20181;-64
2022/11/06 02:02:10;;;;;;;13.43;11.27;;;;;;;12.73;57.19;94439.53;5048437;28;20233;-64
2022/11/06 02:04:40;;;;;;;15.35;12.32;;;;;;;12.77;57.46;94442.63;5033227;28;20216;-64
2022/11/06 02:07:06;;;;;;;13.82;11.40;;;;;;;12.79;57.03;94441.44;5034658;28;20197;-62
2022/11/06 02:09:33;;;;;;;13.35;10.57;;;;;;;12.83;56.92;94446.38;5043581;28;20198;-62
2022/11/06 02:12:13;;;;;;;15.18;11.00;;;;;;;12.84;56.69;94440.91;5030113;28;20181;-62
2022/11/06 02:14:49;;;;;;;13.55;11.25;;;;;;;12.79;57.04;94445.91;5034508;28;20247;-62
2022/11/06 02:17:47;;;;;;;14.30;10.48;;;;;;;12.85;57.10;94439.91;5029401;28;20186;-63
2022/11/06 02:21:02;;;;;;;14.77;9.50;;;;;;;12.95;57.03;94437.03;4953756;28;20931;-62
2022/11/06 02:23:48;;;;;;;11.85;9.57;;;;;;;12.97;56.86;94442.94;4952420;28;20200;-62
2022/11/06 02:26:50;;;;;;;13.85;8.80;;;;;;;12.94;56.93;94438.03;4970169;28;20685;-63
2022/11/06 02:29:24;;;;;;;14.15;9.65;;;;;;;12.91;57.00;94422.53;4955478;28;20202;-63
2022/11/06 02:31:54;;;;;;;12.98;8.25;;;;;;;13.02;56.67;94435.31;4952542;28;20239;-62
2022/11/06 02:34:24;;;;;;;12.70;8.70;;;;;;;12.99;56.88;94433.00;4970834;28;20191;-62
2022/11/06 02:37:03;;;;;;;13.30;9.20;;;;;;;12.96;56.52;94430.72;4953094;28;20306;-61
2022/11/06 02:39:31;;;;;;;13.55;9.32;;;;;;;12.93;56.98;94436.38;4953575;28;20204;-61
2022/11/06 02:41:58;;;;;;;11.63;8.55;;;;;;;13.02;56.88;94443.22;4955431;28;20208;-62
2022/11/06 02:44:27;;;;;;;12.68;9.02;;;;;;;13.01;57.07;94450.31;4954868;28;20212;-62
2022/11/06 02:46:57;;;;;;;13.48;8.25;;;;;;;13.12;56.67;94448.22;4953436;28;20273;-63
2022/11/06 02:49:34;;;;;;;10.77;8.27;;;;;;;13.01;57.03;94457.41;4970701;28;20207;-64
2022/11/06 02:52:13;;;;;;;11.90;8.15;;;;;;;13.09;57.37;94461.78;4969397;28;20295;-64
2022/11/06 02:54:45;;;;;;;11.60;8.00;;;;;;;13.05;57.16;94460.53;4967504;28;20615;-64
2022/11/06 02:57:14;;;;;;;13.32;7.65;;;;;;;13.11;57.28;94476.44;4994925;28;20205;-63
2022/11/06 03:00:06;;;;;;;12.90;7.55;;;;;;;13.02;57.60;94478.34;5031199;28;20197;-64
2022/11/06 03:02:47;;;;;;;14.30;8.27;;;;;;;13.10;57.33;94464.25;5006590;28;20200;-63
2022/11/06 03:05:26;;;;;;;15.32;8.13;;;;;;;13.02;57.74;94466.97;5003040;28;20606;-64
2022/11/06 03:08:16;;;;;;;16.05;7.97;;;;;;;13.18;57.24;94471.28;5021934;28;20289;-64
2022/11/06 03:11:10;;;;;;;10.40;7.95;;;;;;;13.09;57.52;94472.34;5010152;28;20190;-63
2022/11/06 03:13:56;;;;;;;12.60;8.15;;;;;;;13.02;58.04;94467.78;4994368;28;20202;-63
2022/11/06 03:16:32;;;;;;;10.13;7.82;;;;;;;13.03;58.26;94474.69;4963057;28;20204;-64
2022/11/06 03:19:17;;;;;;;11.02;7.70;;;;;;;13.05;58.41;94482.44;4946988;28;20200;-63
2022/11/06 03:21:42;;;;;;;10.88;8.25;;;;;;;12.96;58.54;94478.22;4954165;28;20944;-64
2022/11/06 03:24:26;;;;;;;10.77;7.90;;;;;;;13.09;58.27;94489.00;4946290;28;20236;-63
2022/11/06 03:26:52;;;;;;;10.15;7.57;;;;;;;13.01;58.62;94481.16;4968283;28;20254;-64
2022/11/06 03:29:21;;;;;;;12.75;8.02;;;;;;;13.03;58.66;94468.59;4957156;28;20223;-64
2022/11/06 03:32:04;;;;;;;9.57;7.60;;;;;;;13.02;58.92;94488.09;4967548;28;20272;-64
2022/11/06 03:34:43;;;;;;;10.80;7.63;;;;;;;12.99;59.49;94493.72;4967071;28;20204;-64
2022/11/06 03:37:22;;;;;;;12.73;7.82;;;;;;;13.04;59.52;94491.34;4949706;28;20262;-63
2022/11/06 03:39:52;;;;;;;11.63;7.57;;;;;;;13.02;59.90;94488.09;4965353;28;20240;-64
2022/11/06 03:42:24;;;;;;;13.07;8.32;;;;;;;12.97;59.79;94490.44;4953033;28;20276;-64
2022/11/06 03:45:05;;;;;;;9.38;7.50;;;;;;;12.96;59.83;94484.34;4952238;28;20216;-63
2022/11/06 03:47:44;;;;;;;8.98;7.43;;;;;;;12.93;59.67;94473.31;4953967;28;20231;-64
2022/11/06 03:50:22;;;;;;;9.20;8.18;;;;;;;12.98;59.38;94478.88;4953998;28;20335;-63
2022/11/06 03:52:57;;;;;;;10.50;8.05;;;;;;;12.94;59.91;94472.34;4962512;28;20203;-63
2022/11/06 03:55:32;;;;;;;11.43;8.52;;;;;;;13.00;59.54;94474.25;5009624;28;20194;-63
2022/11/06 03:58:07;;;;;;;10.02;8.13;;;;;;;12.96;59.46;94475.59;5003052;28;20209;-64
2022/11/06 04:00:35;;;;;;;11.45;8.43;;;;;;;12.89;59.42;94478.16;5009864;28;20229;-63
2022/11/06 04:03:06;;;;;;;13.20;8.70;;;;;;;12.86;59.39;94486.44;5024918;28;20194;-63
2022/11/06 04:05:38;;;;;;;13.48;8.05;;;;;;;12.90;59.42;94478.97;5013343;28;20190;-63
2022/11/06 04:14:00;;;;;;;11.88;7.85;;;;;;;12.89;59.89;94483.44;5026586;28;20572;-65
2022/11/06 04:16:39;;;;;;;8.75;7.13;;;;;;;12.89;60.18;94490.53;5045402;28;20205;-63
2022/11/06 04:19:12;;;;;;;10.75;8.30;;;;;;;12.87;60.65;94485.41;5028416;28;20186;-64
2022/11/06 04:21:44;;;;;;;12.82;7.97;;;;;;;12.85;61.04;94483.94;5041750;28;20205;-64
2022/11/06 04:27:19;;;;;;;14.23;8.35;;;;;;;12.85;62.10;94497.16;5029353;28;20221;-64
2022/11/06 04:29:53;;;;;;;12.50;8.35;;;;;;;12.88;62.11;94486.22;5026230;28;20237;-63
2022/11/06 04:32:37;;;;;;;11.40;8.07;;;;;;;12.82;62.59;94486.94;5027738;28;21192;-63
2022/11/06 04:35:08;;;;;;;11.00;8.25;;;;;;;12.76;63.19;94496.41;5037965;28;20190;-63
2022/11/06 04:38:03;;;;;;;10.52;7.95;;;;;;;12.79;63.36;94493.41;5018509;28;20261;-63
2022/11/06 04:40:35;;;;;;;10.55;8.55;;;;;;;12.81;63.61;94491.41;5023694;28;21008;-63
2022/11/06 04:43:09;;;;;;;11.18;8.48;;;;;;;12.79;64.13;94488.13;5026895;28;20191;-63
2022/11/06 04:45:48;;;;;;;12.63;9.00;;;;;;;12.75;64.30;94492.09;5023992;28;20199;-63
2022/11/06 04:48:16;;;;;;;12.02;8.88;;;;;;;12.68;64.81;94481.47;5031626;28;20559;-63
2022/11/06 04:50:47;;;;;;;9.88;8.52;;;;;;;12.73;64.52;94478.28;5031563;28;20210;-63
2022/11/06 04:53:15;;;;;;;9.95;8.32;;;;;;;12.71;64.74;94490.84;5048485;28;20754;-63
2022/11/06 04:55:52;;;;;;;13.77;8.88;;;;;;;12.74;65.08;94491.28;5031683;28;20198;-63
2022/11/06 04:58:18;;;;;;;10.48;9.10;;;;;;;12.62;65.77;94490.09;5029467;28;20191;-63
2022/11/06 05:00:47;;;;;;;12.27;9.25;;;;;;;12.64;65.85;94495.97;5041904;28;20238;-63
2022/11/06 05:03:14;;;;;;;13.18;9.85;;;;;;;12.64;66.36;94506.53;5012469;28;20195;-63
2022/11/06 05:05:40;;;;;;;14.90;10.17;;;;;;;12.63;66.70;94504.91;5012053;28;20605;-63
2022/11/06 05:08:11;;;;;;;12.63;9.43;;;;;;;12.60;67.28;94501.81;5010305;28;20249;-63
2022/11/06 05:10:37;;;;;;;14.10;9.65;;;;;;;12.60;66.96;94507.91;5010029;28;20574;-63
2022/11/06 05:13:03;;;;;;;12.95;9.75;;;;;;;12.65;66.89;94512.66;5012898;28;20183;-63
2022/11/06 05:15:28;;;;;;;12.32;10.25;;;;;;;12.66;66.98;94530.91;5013556;28;20206;-63
2022/11/06 05:17:53;;;;;;;15.77;10.50;;;;;;;12.69;66.96;94521.84;5006247;28;20677;-62
2022/11/06 05:20:19;;;;;;;13.02;9.38;;;;;;;12.65;67.26;94528.47;5008784;28;20256;-62
2022/11/06 05:22:59;;;;;;;12.80;10.05;;;;;;;12.61;67.51;94535.09;5011698;28;20191;-63
2022/11/06 05:25:45;;;;;;;12.27;10.52;;;;;;;12.67;67.40;94543.13;5012664;28;20542;-63
2022/11/06 05:28:10;;;;;;;12.52;9.77;;;;;;;12.70;67.61;94537.50;5010610;28;20263;-63
2022/11/06 05:30:36;;;;;;;10.80;9.80;;;;;;;12.64;67.83;94540.81;5011940;28;20191;-63
2022/11/06 05:33:02;;;;;;;13.77;10.48;;;;;;;12.69;67.92;94540.31;5012489;28;20562;-63
2022/11/06 05:35:27;;;;;;;16.20;10.93;;;;;;;12.65;67.77;94546.94;5010919;28;20206;-63
2022/11/06 05:38:01;;;;;;;15.20;10.90;;;;;;;12.71;67.70;94547.03;5004496;28;20194;-63
2022/11/06 05:40:26;;;;;;;14.57;10.35;;;;;;;12.75;67.35;94556.25;5028013;28;20214;-63
2022/11/06 05:42:54;;;;;;;13.38;10.57;;;;;;;12.79;67.46;94557.53;5011030;28;20420;-63
2022/11/06 05:45:19;;;;;;;15.10;10.43;;;;;;;12.83;67.26;94549.25;5010227;28;20202;-63
2022/11/06 05:47:45;;;;;;;14.98;10.13;;;;;;;12.82;67.45;94550.28;5011748;28;20194;-63
2022/11/06 05:50:10;;;;;;;14.02;10.43;;;;;;;12.88;67.13;94571.47;5007808;28;20685;-63
2022/11/06 05:52:36;;;;;;;11.20;9.97;;;;;;;12.91;67.23;94572.94;5000403;28;20973;-63
2022/11/06 05:55:02;;;;;;;14.40;10.45;;;;;;;13.01;66.84;94570.88;5011873;28;20242;-64
2022/11/06 05:57:27;;;;;;;14.60;9.80;;;;;;;13.03;66.75;94574.19;5012298;28;20194;-63
2022/11/06 05:59:53;;;;;;;11.10;9.80;;;;;;;12.96;67.11;94581.16;5010707;28;20209;-63
2022/11/06 06:02:18;;;;;;;13.03;10.00;;;;;;;12.99;66.68;94575.50;5031993;28;20205;-64
2022/11/06 06:04:44;;;;;;;11.48;10.23;;;;;;;13.06;66.66;94578.28;5032938;28;20280;-64
2022/11/06 06:07:09;;;;;;;11.27;10.07;;;;;;;13.08;66.44;94586.84;5033154;28;20240;-63
2022/11/06 06:09:34;;;;;;;15.48;10.68;;;;;;;13.08;66.53;94585.03;5035200;28;20262;-63
2022/11/06 06:12:00;;;;;;;12.73;10.20;;;;;;;13.14;66.11;94581.66;5033086;28;20265;-63
2022/11/06 06:14:26;;;;;;;13.13;10.80;;;;;;;13.21;65.82;94593.16;5035279;28;20201;-64
2022/11/06 06:16:51;;;;;;;16.67;10.48;;;;;;;13.22;65.92;94593.97;5032413;28;20181;-63
2022/11/06 06:19:18;;;;;;;15.05;10.82;;;;;;;13.27;65.91;94593.50;5032125;28;21022;-63
2022/11/06 06:21:43;;;;;;;16.38;11.57;;;;;;;13.27;65.67;94598.78;5034287;28;20229;-63
2022/11/06 06:24:09;;;;;;;14.10;10.90;;;;;;;13.30;65.61;94596.59;5034585;28;20276;-64
2022/11/06 06:26:34;;;;;;;15.82;11.38;;;;;;;13.29;65.58;94600.22;5033720;28;20196;-64
2022/11/06 06:29:01;;;;;;;15.25;10.68;;;;;;;13.29;65.62;94612.63;5039902;28;20224;-64
2022/11/06 06:31:26;;;;;;;11.50;9.98;;;;;;;13.27;65.95;94609.34;5034264;28;20196;-64
2022/11/06 06:33:52;;;;;;;14.45;10.88;;;;;;;13.32;65.68;94601.69;5034730;28;20256;-63
2022/11/06 06:36:17;;;;;;;13.02;10.20;;;;;;;13.29;65.88;94608.16;5040258;28;20225;-63
2022/11/06 06:38:43;;;;;;;13.23;10.32;;;;;;;13.29;65.78;94609.97;5034304;28;20634;-63
2022/11/06 06:41:08;;;;;;;15.15;11.65;;;;;;;13.37;65.65;94610.72;5034058;28;20201;-63
2022/11/06 06:43:34;;;;;;;14.25;10.98;;;;;;;13.47;64.71;94613.09;5030504;28;20253;-63
2022/11/06 06:46:02;;;;;;;18.15;11.13;;;;;;;13.44;65.10;94621.38;5032754;28;20190;-63
2022/11/06 06:48:28;;;;;;;16.48;10.05;;;;;;;13.44;65.25;94619.56;5034360;28;20198;-64
2022/11/06 06:50:58;;;;;;;12.93;11.43;;;;;;;13.50;65.02;94638.31;5032843;28;20203;-64
2022/11/06 06:53:23;;;;;;;15.50;11.35;;;;;;;13.55;64.68;94626.25;5033559;28;20220;-64
2022/11/06 06:55:52;;;;;;;13.40;10.45;;;;;;;13.62;64.32;94621.88;5034316;28;20672;-64
2022/11/06 06:58:17;;;;;;;14.02;10.98;;;;;;;13.70;64.20;94622.81;5032765;28;20281;-63
2022/11/06 07:00:43;;;;;;;18.15;10.27;;;;;;;13.72;64.03;94629.53;5030498;28;20313;-63
2022/11/06 07:03:09;;;;;;;15.02;10.82;;;;;;;13.75;63.85;94631.81;5030588;28;20192;-64
2022/11/06 07:05:35;;;;;;;14.25;10.38;;;;;;;13.73;63.83;94639.09;5029130;28;20889;-62
2022/11/06 07:08:01;;;;;;;16.00;10.60;;;;;;;13.77;63.81;94644.88;5029508;28;20210;-62
2022/11/06 07:10:26;;;;;;;14.32;10.52;;;;;;;13.81;63.85;94648.78;5029342;28;20333;-62
2022/11/06 07:12:52;;;;;;;12.73;10.52;;;;;;;13.78;63.95;94670.28;5043272;28;20725;-63
2022/11/06 07:15:17;;;;;;;15.68;10.65;;;;;;;13.84;63.61;94657.16;5030734;28;20200;-64
2022/11/06 07:17:43;;;;;;;13.10;10.48;;;;;;;13.86;63.67;94655.16;5026025;28;20181;-64
2022/11/06 07:20:09;;;;;;;15.05;11.10;;;;;;;13.84;63.61;94651.06;5030165;28;20320;-63
2022/11/06 07:22:35;;;;;;;16.98;11.27;;;;;;;13.86;63.74;94670.19;5020705;28;20232;-63
2022/11/06 07:25:00;;;;;;;15.15;10.88;;;;;;;13.79;64.00;94664.81;5028542;28;20211;-63
2022/11/06 07:27:26;;;;;;;13.65;11.43;;;;;;;13.76;63.94;94667.00;5029726;28;20289;-64
2022/11/06 07:29:51;;;;;;;16.05;12.13;;;;;;;13.81;64.02;94668.09;5026201;28;20241;-63
2022/11/06 07:32:17;;;;;;;15.63;11.95;;;;;;;13.88;63.79;94674.31;5026044;28;20185;-64
2022/11/06 07:34:42;;;;;;;14.00;12.45;;;;;;;13.78;63.70;94678.22;5028494;28;20193;-64
2022/11/06 07:37:08;;;;;;;18.17;11.88;;;;;;;13.78;64.19;94672.91;5029734;28;20206;-63
2022/11/06 07:39:33;;;;;;;14.85;11.70;;;;;;;13.78;64.03;94675.56;5029872;28;20194;-63
2022/11/06 07:41:58;;;;;;;17.42;11.82;;;;;;;13.78;63.87;94670.28;5029152;28;20691;-64
2022/11/06 07:44:24;;;;;;;15.00;11.82;;;;;;;13.68;64.41;94674.00;5025259;28;20199;-63
2022/11/06 07:46:50;;;;;;;13.65;12.27;;;;;;;13.74;64.18;94676.91;5027125;28;20185;-63
2022/11/06 07:49:15;;;;;;;15.10;12.07;;;;;;;13.81;63.73;94677.84;5029317;28;20364;-64
2022/11/06 07:51:43;;;;;;;18.10;13.32;;;;;;;13.85;63.93;94679.13;5026924;28;20187;-63
2022/11/06 07:54:12;;;;;;;15.35;12.90;;;;;;;13.87;63.81;94683.25;5029497;28;20280;-63
2022/11/06 07:56:37;;;;;;;19.08;14.30;;;;;;;13.96;63.63;94680.53;5029170;28;20193;-64
2022/11/06 07:59:03;;;;;;;15.18;13.43;;;;;;;14.04;63.47;94672.50;5025506;28;20205;-63
2022/11/06 08:01:29;;;;;;;14.75;13.23;;;;;;;14.16;63.07;94686.09;5029049;28;20236;-63
2022/11/06 08:03:55;;;;;;;17.80;14.18;;;;;;;14.17;62.83;94685.09;5016150;28;20194;-64
2022/11/06 08:06:20;;;;;;;18.85;14.38;;;;;;;14.17;62.93;94687.75;5029465;28;20193;-62
2022/11/06 08:08:46;;;;;;;19.05;14.55;;;;;;;14.13;63.25;94679.34;5029008;28;20201;-62
2022/11/06 08:11:12;;;;;;;21.35;14.80;;;;;;;14.29;63.65;94697.66;5028113;28;20186;-62
2022/11/06 08:13:37;;;;;;;18.92;16.20;;;;;;;14.30;64.11;94696.69;5027284;28;20194;-62
2022/11/06 08:16:11;;;;;;;19.80;16.48;;;;;;;14.33;64.49;94698.97;5028401;28;20252;-62
2022/11/06 08:18:37;;;;;;;17.35;15.35;;;;;;;14.42;64.47;94697.03;5041187;28;20190;-62
2022/11/06 08:21:03;;;;;;;17.08;15.23;;;;;;;14.43;63.84;94703.13;5039659;28;20214;-63
2022/11/06 08:23:28;;;;;;;18.70;15.48;;;;;;;14.32;64.03;94697.28;5027661;28;20719;-62
2022/11/06 08:25:59;;;;;;;17.55;15.68;;;;;;;14.37;63.76;94709.97;5031449;28;20209;-62
2022/11/06 08:28:25;;;;;;;18.35;16.08;;;;;;;14.38;63.83;94708.16;5030647;28;20190;-63
2022/11/06 08:30:52;;;;;;;16.90;15.25;;;;;;;14.37;63.69;94711.81;5032748;28;20217;-63
2022/11/06 08:33:18;;;;;;;19.25;15.80;;;;;;;14.31;64.96;94710.72;5032955;28;20209;-63
2022/11/06 08:35:44;;;;;;;19.23;16.85;;;;;;;14.38;66.71;94724.03;5048974;28;20194;-62
2022/11/06 08:38:09;;;;;;;21.95;18.35;;;;;;;14.36;67.65;94718.13;5031498;28;20252;-63
2022/11/06 08:40:37;;;;;;;21.13;18.58;;;;;;;14.47;67.15;94710.53;5031556;28;20271;-62
2022/11/06 08:43:05;;;;;;;23.85;20.17;;;;;;;14.43;68.92;94719.81;5031688;28;20193;-63
2022/11/06 08:45:31;;;;;;;22.95;20.55;;;;;;;14.45;70.32;94722.31;5049991;28;20193;-63
2022/11/06 08:48:01;;;;;;;22.98;20.48;;;;;;;14.44;70.40;94718.84;5030846;28;20190;-63
2022/11/06 08:50:27;;;;;;;22.73;20.23;;;;;;;14.59;69.55;94729.44;5033137;28;20194;-67
2022/11/06 08:52:56;;;;;;;18.98;17.10;;;;;;;14.53;68.37;94720.41;5031639;28;20190;-67
2022/11/06 08:55:21;;;;;;;22.70;17.23;;;;;;;14.46;70.01;94735.34;5030838;28;20187;-67
2022/11/06 08:57:47;;;;;;;18.40;16.13;;;;;;;14.64;69.31;94742.13;5031352;28;20194;-68
2022/11/06 09:00:14;;;;;;;18.38;16.45;;;;;;;14.78;69.08;94733.34;5033763;28;20964;-68
2022/11/06 09:02:39;;;;;;;18.70;16.33;;;;;;;14.71;68.70;94735.91;5047269;28;20194;-70
2022/11/06 09:05:05;;;;;;;19.65;17.67;;;;;;;14.65;69.65;94741.94;5034857;28;20196;-69
2022/11/06 09:07:30;;;;;;;20.10;18.05;;;;;;;14.63;69.86;94741.31;5026805;28;20267;-69
2022/11/06 09:09:56;;;;;;;20.63;18.45;;;;;;;14.68;70.31;94738.13;5035635;28;20185;-68
2022/11/06 09:12:21;;;;;;;19.65;17.77;;;;;;;14.65;71.02;94738.47;5025481;28;20610;-69
2022/11/06 09:14:47;;;;;;;21.23;19.15;;;;;;;14.72;71.16;94739.38;5041743;28;21092;-68
2022/11/06 09:17:12;;;;;;;21.33;19.02;;;;;;;14.85;70.62;94741.38;5037923;28;20190;-68
2022/11/06 09:19:38;;;;;;;21.13;19.02;;;;;;;14.79;71.16;94742.94;5035006;28;20551;-69
2022/11/06 09:22:03;;;;;;;20.38;18.38;;;;;;;14.74;70.42;94740.03;5034216;28;20232;-68
2022/11/06 09:24:28;;;;;;;20.45;18.35;;;;;;;14.66;70.91;94748.88;5040294;28;20208;-69
2022/11/06 09:26:54;;;;;;;19.15;17.10;;;;;;;14.66;70.90;94743.56;5037507;28;20672;-69
2022/11/06 09:29:19;;;;;;;19.60;17.35;;;;;;;14.66;70.56;94737.47;5031466;28;20190;-68
2022/11/06 09:31:45;;;;;;;17.98;16.15;;;;;;;14.51;71.44;94745.38;5032202;28;20251;-69
2022/11/06 09:34:10;;;;;;;19.02;17.20;;;;;;;14.60;71.32;94740.88;5034031;28;20198;-68
2022/11/06 09:36:36;;;;;;;18.20;16.50;;;;;;;14.64;71.50;94747.41;5035794;28;20201;-68
2022/11/06 09:39:01;;;;;;;19.75;17.20;;;;;;;14.65;71.32;94739.31;5037027;28;20571;-68
2022/11/06 09:41:45;;;;;;;19.25;17.40;;;;;;;14.59;72.12;94739.19;5037496;28;20216;-68
2022/11/06 09:44:30;;;;;;;20.20;18.30;;;;;;;14.63;72.44;94743.94;5035865;28;20228;-69
2022/11/06 09:46:59;;;;;;;20.25;18.30;;;;;;;14.48;73.77;94735.16;5052670;28;20700;-69
2022/11/06 09:49:27;;;;;;;19.73;17.95;;;;;;;14.51;73.52;94740.94;5033483;28;20197;-69
2022/11/06 09:52:05;;;;;;;19.48;17.48;;;;;;;14.52;73.41;94745.22;5036030;28;20213;-69
2022/11/06 09:54:50;;;;;;;18.42;16.70;;;;;;;14.51;73.61;94743.56;5040065;28;20193;-70
2022/11/06 09:57:42;;;;;;;17.50;15.80;;;;;;;14.68;72.80;94744.22;5035387;28;20201;-69
2022/11/06 10:00:12;;;;;;;16.52;15.00;;;;;;;14.67;72.22;94750.50;5034561;28;20220;-69
2022/11/06 10:02:51;;;;;;;16.45;15.02;;;;;;;14.82;71.44;94742.56;5033546;28;20736;-68
2022/11/06 10:05:41;;;;;;;16.63;15.00;;;;;;;14.61;72.84;94743.31;5051049;28;20193;-69
2022/11/06 10:08:22;;;;;;;16.30;14.60;;;;;;;14.58;73.59;94738.38;5034274;28;20293;-70
2022/11/06 10:10:51;;;;;;;15.13;13.68;;;;;;;14.68;73.38;94741.56;5055019;28;20197;-70
2022/11/06 10:13:35;;;;;;;12.73;11.52;;;;;;;14.75;72.87;94741.66;5034380;28;20220;-70
2022/11/06 10:16:29;;;;;;;12.85;11.65;;;;;;;14.87;72.08;94737.53;5037506;28;20189;-69
2022/11/06 10:19:15;;;;;;;13.10;11.75;;;;;;;14.91;71.83;94746.72;5033328;28;20463;-69
2022/11/06 10:21:47;;;;;;;12.35;11.25;;;;;;;14.94;71.13;94743.75;4952286;28;20322;-70
2022/11/06 10:24:38;;;;;;;12.07;10.98;;;;;;;15.03;70.97;94741.00;4975117;28;20204;-68
2022/11/06 10:27:12;;;;;;;12.15;10.93;;;;;;;15.07;70.35;94743.06;4971609;28;20219;-70
2022/11/06 10:29:57;;;;;;;11.15;10.15;;;;;;;15.14;70.44;94748.44;4972726;28;20200;-70
2022/11/06 10:32:45;;;;;;;11.45;10.27;;;;;;;15.10;70.24;94742.72;4959364;28;20196;-70
2022/11/06 10:35:52;;;;;;;10.88;9.77;;;;;;;15.15;70.02;94744.78;4969741;28;20235;-70
2022/11/06 10:38:23;;;;;;;10.43;9.50;;;;;;;15.16;70.47;94743.78;4945025;28;20199;-70
2022/11/06 10:40:50;;;;;;;10.07;9.13;;;;;;;15.13;70.49;94742.34;4951465;28;20204;-70
2022/11/06 10:43:43;;;;;;;11.07;10.07;;;;;;;15.17;70.38;94740.94;4953960;28;20219;-71
2022/11/06 10:46:18;;;;;;;10.57;9.45;;;;;;;15.23;70.03;94747.31;4953901;28;20215;-71
2022/11/06 10:48:48;;;;;;;8.88;8.07;;;;;;;15.22;69.10;94748.34;4970452;28;20188;-70
2022/11/06 10:52:03;;;;;;;8.25;7.45;;;;;;;15.02;69.80;94745.44;4956944;28;20657;-70
2022/11/06 10:54:57;;;;;;;6.53;5.75;;;;;;;14.87;69.41;94748.13;4930852;29;20203;-70
2022/11/06 10:57:45;;;;;;;5.75;5.22;;;;;;;14.78;68.76;94747.41;4931248;29;20244;-67
2022/11/06 11:00:12;;;;;;;6.82;5.30;;;;;;;14.72;69.71;94749.97;4944779;28;20200;-67
2022/11/06 11:02:42;;;;;;;6.45;5.63;;;;;;;14.81;69.86;94742.75;4935499;28;20201;-71
2022/11/06 11:05:13;;;;;;;6.57;5.70;;;;;;;14.86;69.98;94753.59;4938112;29;20251;-71
2022/11/06 11:07:39;;;;;;;7.10;6.18;;;;;;;14.86;70.46;94751.78;4953348;28;20671;-70
2022/11/06 11:10:23;;;;;;;7.57;6.88;;;;;;;14.77;70.61;94750.22;4951656;28;20211;-66
2022/11/06 11:12:53;;;;;;;9.07;7.63;;;;;;;14.52;72.32;94755.81;4940010;28;20227;-67
2022/11/06 11:15:21;;;;;;;8.18;7.43;;;;;;;14.77;71.90;94756.34;4951664;28;20283;-69
2022/11/06 11:18:08;;;;;;;7.55;6.85;;;;;;;14.72;71.71;94749.97;4937252;28;20204;-68
2022/11/06 11:20:35;;;;;;;7.43;6.72;;;;;;;14.76;72.02;94740.66;4938133;28;20211;-70
2022/11/06 11:23:22;;;;;;;8.25;7.30;;;;;;;14.88;72.01;94743.66;4953079;28;20223;-70
2022/11/06 11:25:53;;;;;;;10.25;7.85;;;;;;;14.73;72.44;94746.31;4952144;28;20196;-70
2022/11/06 11:28:30;;;;;;;7.50;6.88;;;;;;;14.76;72.63;94746.78;4954153;28;20623;-70
2022/11/06 11:31:03;;;;;;;8.07;7.32;;;;;;;14.89;72.36;94745.28;5002785;28;20197;-70
2022/11/06 11:33:29;;;;;;;7.57;6.90;;;;;;;14.86;72.50;94735.91;5047864;28;20185;-70
2022/11/06 11:35:54;;;;;;;8.20;7.50;;;;;;;14.90;72.00;94736.34;5025112;28;20217;-70
2022/11/06 11:38:21;;;;;;;8.38;7.60;;;;;;;14.95;71.57;94732.13;5031755;28;20190;-70
2022/11/06 11:40:47;;;;;;;8.82;8.07;;;;;;;15.07;70.99;94736.94;5029560;28;20288;-70
2022/11/06 11:43:28;;;;;;;10.18;8.70;;;;;;;15.15;70.72;94735.00;5033031;28;20205;-70
2022/11/06 11:46:09;;;;;;;10.80;9.85;;;;;;;15.18;71.03;94729.34;5029408;28;20189;-68
2022/11/06 11:48:43;;;;;;;11.88;10.73;;;;;;;15.24;69.74;94738.38;5050337;28;20197;-68